Oriental Clematis — 9VJT5 — position and weather

sailwx.info

Track history (hours):
 
Tides and Currents Weather Stations Pressure Air Temp Water Temp Dewpoint Dewpoint Depression Visibility Wind Speed Wind Dir Waves Ship Positions

Oriental Clematis

Last reported at 2015-Feb-26 15:06 UTC. Time now 2015-Feb-27 00:29 UTC.
Position N 08°54' E 123°12'.

Length 134 m; draft 4.7 m.

Type: Ship. MMSI: 565157000.

Date/timePositionNaut miles runAvg speedWind from/ knotsBaromVisibWave heightAir tempDewpointWater temp
2015-Feb-26 15:06N 08°54' E 123°12'814.0
2015-Feb-26 14:33N 08°56' E 123°20'1312.8
2015-Feb-26 13:33N 08°59' E 123°32'1513.3
2015-Feb-26 12:27N 09°03' E 123°46'87 8.0
2015-Feb-26 01:33N 09°26' E 125°12'1513.8
2015-Feb-26 00:26N 09°41' E 125°13'1011.6
2015-Feb-25 23:33N 09°50' E 125°18'  
2015-Feb-20 03:33N 35°01' E 139°40'1313.0
2015-Feb-20 02:33N 35°13' E 139°46'1111.1
2015-Feb-20 01:33N 35°24' E 139°43'  
2015-Feb-17 15:17N 35°33' E 139°57'5 6.8
2015-Feb-17 14:34N 35°30' E 139°53'10 9.5
2015-Feb-17 13:34N 35°23' E 139°45'10 9.5
2015-Feb-17 12:33N 35°13' E 139°47'1111.2
2015-Feb-17 11:34N 35°02' E 139°44'  
Track history (hours):
 
Tides and Currents Weather Stations Pressure Air Temp Water Temp Dewpoint Dewpoint Depression Visibility Wind Speed Wind Dir Waves Ship Positions

Oriental Clematis

Last reported at 2015-Feb-26 15:06 UTC. Time now 2015-Feb-27 00:29 UTC.
Position N 08°54' E 123°12'.

Length 134 m; draft 4.7 m.

Type: Ship. MMSI: 565157000.

Date/timePositionNaut miles runAvg speedWind from/ knotsBaromVisibWave heightAir tempDewpointWater temp
2015-Feb-26 15:06N 08°54' E 123°12'814.0
2015-Feb-26 14:33N 08°56' E 123°20'1312.8
2015-Feb-26 13:33N 08°59' E 123°32'1513.3
2015-Feb-26 12:27N 09°03' E 123°46'87 8.0
2015-Feb-26 01:33N 09°26' E 125°12'1513.8
2015-Feb-26 00:26N 09°41' E 125°13'1011.6
2015-Feb-25 23:33N 09°50' E 125°18'  
2015-Feb-20 03:33N 35°01' E 139°40'1313.0
2015-Feb-20 02:33N 35°13' E 139°46'1111.1
2015-Feb-20 01:33N 35°24' E 139°43'  
2015-Feb-17 15:17N 35°33' E 139°57'5 6.8
2015-Feb-17 14:34N 35°30' E 139°53'10 9.5
2015-Feb-17 13:34N 35°23' E 139°45'10 9.5
2015-Feb-17 12:33N 35°13' E 139°47'1111.2
2015-Feb-17 11:34N 35°02' E 139°44'  

Dump ship's entire track history